createdAt,value
2022-08-17T00:00:54.402Z,76.64
2022-08-17T00:01:54.713Z,76.43
2022-08-17T00:04:39.299Z,76.14
2022-08-17T00:05:11.480Z,76.04
2022-08-17T00:06:11.809Z,75.93
2022-08-17T00:07:12.131Z,75.93
2022-08-17T00:08:12.459Z,75.93
2022-08-17T00:09:12.784Z,76.14
2022-08-17T00:10:14.084Z,76.24
2022-08-17T00:11:13.354Z,76.28
2022-08-17T00:12:41.141Z,76.47
2022-08-17T00:13:14.971Z,76.67
2022-08-17T00:14:14.221Z,76.47
2022-08-17T00:15:14.554Z,76.57
2022-08-17T00:16:14.886Z,76.78
2022-08-17T00:17:15.217Z,76.78
2022-08-17T00:18:53.937Z,76.98
2022-08-17T00:19:16.845Z,77.17
2022-08-17T00:20:16.091Z,77.17
2022-08-17T00:21:16.337Z,77.17
2022-08-17T00:22:34.181Z,77.08
2022-08-17T00:23:17.976Z,77.17
2022-08-17T00:24:17.217Z,77.28
2022-08-17T00:25:17.535Z,77.37
2022-08-17T00:26:44.544Z,77.67
2022-08-17T00:27:19.152Z,77.78
2022-08-17T00:28:18.408Z,77.81
2022-08-17T00:29:19.887Z,77.81
2022-08-17T00:30:19.000Z,77.81
2022-08-17T00:31:19.341Z,77.81
2022-08-17T00:33:13.673Z,77.81
2022-08-17T00:33:20.938Z,77.81
2022-08-17T00:34:20.181Z,77.81
2022-08-17T00:35:20.509Z,77.72
2022-08-17T00:36:20.852Z,77.72
2022-08-17T00:37:21.161Z,77.61
2022-08-17T00:38:21.480Z,77.72
2022-08-17T00:39:21.803Z,77.61
2022-08-17T00:40:22.112Z,77.72
2022-08-17T00:41:22.465Z,77.72
2022-08-17T00:42:24.493Z,78.02
2022-08-17T00:43:23.027Z,78.11
2022-08-17T00:44:23.357Z,78.11
2022-08-17T00:45:24.660Z,78.31
2022-08-17T00:46:23.936Z,78.42
2022-08-17T00:47:24.265Z,78.52
2022-08-17T00:48:29.690Z,78.61
2022-08-17T00:49:25.889Z,78.72
2022-08-17T00:50:25.146Z,78.72
2022-08-17T00:51:25.486Z,78.81
2022-08-17T00:52:25.806Z,78.72
2022-08-17T00:53:26.135Z,78.75
2022-08-17T00:54:26.456Z,78.75
2022-08-17T00:55:26.770Z,78.85
2022-08-17T00:56:27.117Z,78.75
2022-08-17T00:57:27.437Z,78.75
2022-08-17T00:58:35.732Z,78.66
2022-08-17T00:59:29.051Z,78.66
2022-08-17T01:00:28.313Z,78.75
2022-08-17T01:01:28.681Z,78.85
2022-08-17T01:02:28.894Z,78.85
2022-08-17T01:03:30.191Z,78.96
2022-08-17T01:04:29.445Z,78.96
2022-08-17T01:05:29.761Z,78.96
2022-08-17T01:06:30.095Z,78.85
2022-08-17T01:07:30.341Z,78.75
2022-08-17T01:08:30.645Z,78.75
2022-08-17T01:09:30.959Z,78.75
2022-08-17T01:10:58.345Z,78.75
2022-08-17T01:11:32.626Z,78.75
2022-08-17T01:12:31.878Z,78.96
2022-08-17T01:13:35.480Z,78.96
2022-08-17T01:14:33.506Z,79.05
2022-08-17T01:15:32.754Z,79.16
2022-08-17T01:16:33.086Z,79.05
2022-08-17T01:17:33.398Z,79.05
2022-08-17T01:18:33.719Z,79.05
2022-08-17T01:19:34.040Z,78.96
2022-08-17T01:20:43.071Z,78.96
2022-08-17T01:21:35.650Z,78.85
2022-08-17T01:22:34.898Z,78.85
2022-08-17T01:23:35.221Z,78.85
2022-08-17T01:24:35.543Z,78.75
2022-08-17T01:25:35.871Z,78.85
2022-08-17T01:26:36.180Z,78.89
2022-08-17T01:27:36.511Z,78.99
2022-08-17T01:28:54.328Z,79.09
2022-08-17T01:29:38.045Z,79.19
2022-08-17T01:30:56.994Z,79.29
2022-08-17T01:31:38.593Z,79.39
2022-08-17T01:32:37.882Z,79.49
2022-08-17T01:33:38.072Z,79.49
2022-08-17T01:34:43.646Z,79.49
2022-08-17T01:35:39.685Z,79.60
2022-08-17T01:36:38.946Z,79.49
2022-08-17T01:37:39.255Z,79.49
2022-08-17T01:38:39.631Z,79.39
2022-08-17T01:39:39.879Z,79.29
2022-08-17T01:40:40.109Z,79.39
2022-08-17T01:41:40.451Z,79.60
2022-08-17T01:42:40.768Z,79.60
2022-08-17T01:43:41.089Z,79.69
2022-08-17T01:44:41.400Z,79.69
2022-08-17T01:45:41.725Z,79.69
2022-08-17T01:46:42.104Z,79.60
2022-08-17T01:47:42.329Z,79.60
2022-08-17T01:48:42.650Z,79.69
2022-08-17T01:49:42.969Z,79.69
2022-08-17T01:50:43.283Z,79.69
2022-08-17T01:51:43.628Z,79.80
2022-08-17T01:52:43.942Z,79.80
2022-08-17T01:53:44.261Z,79.99
2022-08-17T01:54:44.575Z,80.24
2022-08-17T01:55:44.883Z,80.33
2022-08-17T01:56:47.329Z,80.24
2022-08-17T01:57:45.504Z,80.24
2022-08-17T01:58:45.811Z,80.24
2022-08-17T01:59:46.132Z,80.24
2022-08-17T02:00:46.793Z,80.13
2022-08-17T02:01:47.831Z,80.04
2022-08-17T02:02:46.993Z,80.04
2022-08-17T02:03:53.470Z,79.83
2022-08-17T02:04:48.637Z,79.83
2022-08-17T02:05:47.866Z,79.83
2022-08-17T02:06:53.187Z,79.73
2022-08-17T02:08:00.182Z,79.73
2022-08-17T02:09:01.704Z,79.53
2022-08-17T02:09:52.633Z,79.53
2022-08-17T02:10:49.506Z,79.53
2022-08-17T02:11:49.913Z,79.53
2022-08-17T02:12:50.265Z,79.43
2022-08-17T02:13:57.907Z,79.43
2022-08-17T02:14:51.710Z,79.43
2022-08-17T02:15:50.959Z,79.43
2022-08-17T02:16:51.292Z,79.43
2022-08-17T02:17:54.582Z,79.33
2022-08-17T02:18:51.870Z,79.23
2022-08-17T02:19:52.178Z,79.13
2022-08-17T02:20:52.491Z,79.13
2022-08-17T02:21:52.814Z,79.13
2022-08-17T02:22:53.126Z,79.23
2022-08-17T02:23:53.446Z,79.33
2022-08-17T02:24:59.536Z,79.33
2022-08-17T02:25:55.044Z,79.53
2022-08-17T02:26:54.283Z,79.63
2022-08-17T02:27:54.595Z,79.77
2022-08-17T02:28:54.926Z,79.97
2022-08-17T02:29:55.235Z,80.47
2022-08-17T02:31:02.002Z,80.57
2022-08-17T02:31:56.861Z,80.47
2022-08-17T02:32:56.108Z,80.68
2022-08-17T02:34:00.403Z,80.68
2022-08-17T02:34:57.663Z,80.68
2022-08-17T02:35:56.911Z,80.68
2022-08-17T02:36:57.239Z,80.57
2022-08-17T02:37:57.556Z,80.57
2022-08-17T02:38:57.879Z,80.57
2022-08-17T02:39:58.475Z,80.47
2022-08-17T02:40:58.439Z,80.37
2022-08-17T02:41:58.782Z,80.37
2022-08-17T02:42:59.088Z,80.27
2022-08-17T02:43:59.419Z,80.27
2022-08-17T02:44:59.744Z,80.07
2022-08-17T02:46:00.074Z,80.07
2022-08-17T02:47:00.400Z,80.07
2022-08-17T02:48:00.721Z,80.07
2022-08-17T02:49:01.027Z,80.07
2022-08-17T02:50:01.355Z,80.07
2022-08-17T02:51:01.673Z,80.07
2022-08-17T02:52:02.014Z,80.07
2022-08-17T02:53:02.924Z,80.07
2022-08-17T02:54:41.042Z,80.17
2022-08-17T02:55:03.859Z,80.07
2022-08-17T02:56:03.099Z,80.27
2022-08-17T02:57:03.414Z,80.41
2022-08-17T02:58:03.765Z,80.51
2022-08-17T02:59:04.065Z,80.51
2022-08-17T03:00:04.407Z,80.61
2022-08-17T03:01:04.741Z,80.71
2022-08-17T03:02:05.099Z,80.81
2022-08-17T03:03:05.305Z,80.81
2022-08-17T03:04:05.628Z,80.91
2022-08-17T03:05:05.957Z,81.01
2022-08-17T03:06:06.276Z,81.01
2022-08-17T03:07:07.460Z,81.01
2022-08-17T03:08:06.829Z,81.01
2022-08-17T03:09:07.105Z,81.01
2022-08-17T03:10:07.428Z,80.91
2022-08-17T03:11:07.739Z,80.81
2022-08-17T03:12:08.064Z,80.81
2022-08-17T03:13:08.373Z,80.71
2022-08-17T03:14:08.693Z,80.61
2022-08-17T03:15:09.001Z,80.61
2022-08-17T03:16:09.333Z,80.51
2022-08-17T03:17:09.657Z,80.31
2022-08-17T03:18:19.285Z,80.31
2022-08-17T03:19:11.194Z,80.31
2022-08-17T03:20:10.425Z,80.31
2022-08-17T03:21:10.757Z,80.31
2022-08-17T03:22:36.904Z,80.41
2022-08-17T03:23:12.386Z,80.41
2022-08-17T03:24:11.656Z,80.41
2022-08-17T03:25:11.967Z,80.41
2022-08-17T03:26:15.510Z,80.41
2022-08-17T03:27:12.546Z,80.61
2022-08-17T03:28:12.890Z,80.81
2022-08-17T03:29:13.218Z,80.91
2022-08-17T03:30:13.568Z,80.91
2022-08-17T03:31:13.889Z,81.01
2022-08-17T03:32:14.227Z,81.15
2022-08-17T03:33:14.551Z,81.35
2022-08-17T03:34:14.950Z,81.41
2022-08-17T03:35:15.164Z,81.65
2022-08-17T03:36:15.469Z,81.56
2022-08-17T03:37:15.792Z,81.65
2022-08-17T03:38:16.120Z,81.65
2022-08-17T03:39:16.445Z,81.65
2022-08-17T03:40:16.770Z,81.46
2022-08-17T03:41:18.076Z,81.46
2022-08-17T03:42:32.155Z,81.35
2022-08-17T03:43:18.672Z,81.35
2022-08-17T03:44:17.954Z,81.26
2022-08-17T03:45:18.283Z,81.15
2022-08-17T03:46:28.486Z,81.05
2022-08-17T03:47:19.966Z,81.05
2022-08-17T03:48:19.232Z,80.95
2022-08-17T03:49:19.588Z,81.05
2022-08-17T03:50:19.915Z,81.15
2022-08-17T03:51:20.275Z,81.26
2022-08-17T03:52:20.496Z,81.26
2022-08-17T03:53:20.844Z,81.35
2022-08-17T03:54:21.185Z,81.26
2022-08-17T03:55:21.527Z,81.15
2022-08-17T03:56:22.846Z,81.26
2022-08-17T03:57:22.121Z,81.15
2022-08-17T03:58:22.468Z,81.26
2022-08-17T03:59:22.809Z,81.35
2022-08-17T04:00:23.159Z,81.26
2022-08-17T04:01:23.557Z,81.15
2022-08-17T04:02:23.882Z,81.05
2022-08-17T04:03:24.122Z,81.05
2022-08-17T04:04:27.427Z,81.05
2022-08-17T04:05:24.613Z,81.15
2022-08-17T04:06:24.841Z,81.15
2022-08-17T04:07:25.079Z,81.15
2022-08-17T04:08:25.367Z,81.35
2022-08-17T04:09:25.583Z,81.46
2022-08-17T04:10:26.522Z,81.46
2022-08-17T04:11:26.106Z,81.46
2022-08-17T04:12:26.336Z,81.46
2022-08-17T04:13:26.574Z,81.35
2022-08-17T04:14:26.814Z,81.46
2022-08-17T04:15:27.034Z,81.41
2022-08-17T04:16:27.406Z,81.56
2022-08-17T04:17:27.642Z,81.62
2022-08-17T04:18:27.869Z,81.52
2022-08-17T04:19:28.096Z,81.32
2022-08-17T04:20:28.318Z,81.12
2022-08-17T04:21:28.695Z,81.01
2022-08-17T04:22:32.446Z,80.81
2022-08-17T04:23:30.257Z,80.71
2022-08-17T04:24:29.483Z,80.61
2022-08-17T04:25:29.731Z,80.61
2022-08-17T04:26:52.847Z,80.61
2022-08-17T04:27:31.268Z,80.51
2022-08-17T04:28:30.610Z,80.61
2022-08-17T04:29:54.399Z,80.61
2022-08-17T04:30:32.189Z,80.61
2022-08-17T04:31:31.492Z,80.61
2022-08-17T04:33:04.504Z,80.51
2022-08-17T04:33:33.045Z,80.21
2022-08-17T04:34:32.353Z,80.21
2022-08-17T04:35:32.592Z,80.21
2022-08-17T04:36:32.935Z,80.11
2022-08-17T04:37:33.186Z,80.11
2022-08-17T04:38:33.414Z,79.91
2022-08-17T04:39:33.980Z,79.91
2022-08-17T04:40:33.953Z,79.81
2022-08-17T04:41:34.186Z,79.91
2022-08-17T04:42:34.425Z,79.97
2022-08-17T04:43:34.681Z,79.87
2022-08-17T04:44:37.463Z,79.77
2022-08-17T04:45:35.185Z,79.77
2022-08-17T04:46:35.486Z,79.67
2022-08-17T04:47:35.706Z,79.67
2022-08-17T04:48:37.418Z,79.77
2022-08-17T04:49:36.196Z,79.77
2022-08-17T04:50:36.430Z,80.07
2022-08-17T04:51:36.668Z,80.07
2022-08-17T04:52:43.664Z,80.17
2022-08-17T04:53:38.207Z,80.27
2022-08-17T04:54:37.488Z,80.27
2022-08-17T04:55:37.740Z,80.27
2022-08-17T04:56:37.970Z,80.43
2022-08-17T04:57:41.812Z,80.24
2022-08-17T04:58:39.542Z,80.13
2022-08-17T04:59:38.823Z,80.24
2022-08-17T05:00:39.063Z,80.13
2022-08-17T05:01:39.418Z,80.04
2022-08-17T05:02:39.543Z,79.93
2022-08-17T05:03:41.051Z,79.83
2022-08-17T05:04:40.085Z,79.90
2022-08-17T05:05:40.325Z,79.90
2022-08-17T05:06:40.545Z,79.90
2022-08-17T05:07:40.790Z,80.19
2022-08-17T05:08:41.034Z,79.90
2022-08-17T05:09:41.274Z,79.99
2022-08-17T05:10:45.494Z,79.99
2022-08-17T05:11:44.941Z,79.80
2022-08-17T05:12:42.134Z,79.55
2022-08-17T05:13:42.288Z,79.66
2022-08-17T05:14:42.646Z,79.86
2022-08-17T05:15:45.195Z,80.16
2022-08-17T05:16:43.167Z,80.02
2022-08-17T05:17:43.398Z,79.42
2022-08-17T05:18:43.629Z,79.08
2022-08-17T05:19:45.732Z,77.91
2022-08-17T05:20:45.197Z,76.73
2022-08-17T05:21:44.501Z,75.59
2022-08-17T05:22:44.757Z,74.32
2022-08-17T05:23:44.986Z,73.25
2022-08-17T05:24:53.349Z,72.72
2022-08-17T05:25:47.740Z,71.59
2022-08-17T05:26:45.776Z,71.05
2022-08-17T05:27:46.012Z,70.82
2022-08-17T05:28:46.242Z,69.69
2022-08-17T05:29:46.525Z,69.46
2022-08-17T05:30:48.675Z,68.66
2022-08-17T05:31:47.038Z,68.23
2022-08-17T05:32:47.263Z,67.70
2022-08-17T05:33:47.507Z,67.40
2022-08-17T05:34:47.770Z,67.37
2022-08-17T05:35:48.029Z,66.97
2022-08-17T05:36:48.284Z,67.07
2022-08-17T05:37:48.567Z,67.37
2022-08-17T05:38:48.791Z,67.18
2022-08-17T05:39:49.079Z,66.94
2022-08-17T05:40:49.323Z,66.74
2022-08-17T05:41:49.580Z,66.31
2022-08-17T05:42:49.956Z,66.18
2022-08-17T05:43:54.331Z,65.78
2022-08-17T05:44:51.400Z,65.49
2022-08-17T05:45:55.400Z,64.67
2022-08-17T05:46:51.917Z,64.89
2022-08-17T05:47:51.243Z,64.89
2022-08-17T05:48:51.531Z,65.39
2022-08-17T05:49:51.755Z,65.39
2022-08-17T05:50:52.074Z,65.49
2022-08-17T05:51:52.348Z,66.51
2022-08-17T05:52:52.624Z,66.71
2022-08-17T05:53:52.868Z,67.14
2022-08-17T05:54:53.139Z,67.54
2022-08-17T05:55:53.487Z,67.74
2022-08-17T05:56:53.785Z,67.83
2022-08-17T05:57:56.070Z,67.97
2022-08-17T05:58:54.279Z,67.94
2022-08-17T05:59:54.592Z,68.27
2022-08-17T06:00:54.909Z,68.99
2022-08-17T06:01:55.071Z,69.09
2022-08-17T06:02:55.480Z,69.26
2022-08-17T06:03:55.645Z,68.86
2022-08-17T06:04:55.932Z,67.74
2022-08-17T06:05:56.214Z,67.50
2022-08-17T06:06:56.506Z,67.41
2022-08-17T06:07:56.815Z,66.98
2022-08-17T06:08:57.086Z,66.48
2022-08-17T06:09:57.367Z,66.68
2022-08-17T06:10:57.717Z,66.61
2022-08-17T06:11:58.838Z,66.94
2022-08-17T06:12:58.197Z,67.57
2022-08-17T06:13:58.470Z,68.27
2022-08-17T06:14:58.757Z,68.46
2022-08-17T06:15:58.999Z,68.66
2022-08-17T06:16:59.250Z,68.66
2022-08-17T06:17:59.521Z,68.33
2022-08-17T06:18:59.814Z,68.13
2022-08-17T06:20:00.194Z,67.71
2022-08-17T06:21:00.323Z,67.31
2022-08-17T06:22:00.584Z,66.98
2022-08-17T06:23:00.864Z,66.48
2022-08-17T06:24:01.115Z,66.38
2022-08-17T06:25:01.376Z,66.61
2022-08-17T06:26:01.639Z,66.88
2022-08-17T06:27:01.923Z,66.71
2022-08-17T06:28:02.196Z,67.31
2022-08-17T06:29:02.448Z,67.41
2022-08-17T06:30:02.717Z,67.60
2022-08-17T06:31:02.970Z,67.57
2022-08-17T06:32:03.236Z,67.27
2022-08-17T06:33:03.490Z,67.08
2022-08-17T06:34:03.749Z,66.68
2022-08-17T06:35:04.011Z,67.31
2022-08-17T06:36:09.200Z,68.23
2022-08-17T06:37:05.608Z,67.83
2022-08-17T06:38:04.923Z,68.46
2022-08-17T06:39:05.188Z,68.96
2022-08-17T06:40:05.497Z,69.66
2022-08-17T06:41:05.766Z,69.49
2022-08-17T06:42:06.094Z,69.89
2022-08-17T06:43:07.352Z,70.09
2022-08-17T06:44:06.576Z,69.82
2022-08-17T06:45:06.894Z,70.12
2022-08-17T06:46:07.155Z,70.62
2022-08-17T06:47:07.401Z,70.85
2022-08-17T06:48:07.636Z,71.45
2022-08-17T06:49:07.903Z,71.45
2022-08-17T06:50:08.147Z,71.55
2022-08-17T06:51:08.398Z,70.68
2022-08-17T06:52:08.636Z,70.79
2022-08-17T06:53:08.880Z,71.28
2022-08-17T06:54:09.125Z,71.51
2022-08-17T06:55:09.398Z,72.02
2022-08-17T06:56:10.608Z,72.11
2022-08-17T06:57:09.960Z,72.31
2022-08-17T06:58:15.991Z,72.61
2022-08-17T06:59:11.543Z,72.35
2022-08-17T07:00:10.873Z,72.05
2022-08-17T07:01:11.179Z,71.95
2022-08-17T07:02:11.442Z,72.25
2022-08-17T07:03:11.694Z,72.35
2022-08-17T07:04:12.355Z,72.65
2022-08-17T07:05:12.185Z,72.85
2022-08-17T07:06:12.434Z,72.65
2022-08-17T07:07:12.684Z,72.25
2022-08-17T07:08:12.927Z,72.22
2022-08-17T07:09:13.167Z,72.02
2022-08-17T07:10:13.428Z,72.31
2022-08-17T07:11:13.657Z,72.02
2022-08-17T07:12:13.907Z,72.31
2022-08-17T07:13:14.149Z,72.31
2022-08-17T07:14:17.379Z,72.22
2022-08-17T07:15:14.674Z,72.48
2022-08-17T07:16:14.928Z,72.08
2022-08-17T07:17:15.187Z,71.98
2022-08-17T07:18:15.424Z,71.69
2022-08-17T07:19:15.693Z,71.39
2022-08-17T07:20:16.023Z,71.39
2022-08-17T07:21:18.545Z,71.78
2022-08-17T07:22:16.574Z,72.05
2022-08-17T07:23:16.814Z,71.45
2022-08-17T07:24:29.975Z,71.25
2022-08-17T07:25:18.326Z,70.95
2022-08-17T07:26:17.700Z,70.56
2022-08-17T07:27:17.784Z,69.96
2022-08-17T07:28:18.054Z,71.15
2022-08-17T07:29:18.318Z,71.45
2022-08-17T07:30:18.530Z,69.46
2022-08-17T07:31:18.768Z,69.36
2022-08-17T07:32:19.018Z,68.96
2022-08-17T07:33:19.260Z,68.66
2022-08-17T07:34:19.512Z,68.83
2022-08-17T07:35:19.922Z,69.13
2022-08-17T07:36:20.019Z,69.13
2022-08-17T07:37:20.261Z,68.63
2022-08-17T07:38:25.370Z,68.93
2022-08-17T07:39:21.863Z,68.33
2022-08-17T07:40:21.253Z,68.73
2022-08-17T07:41:23.055Z,68.43
2022-08-17T07:42:21.824Z,68.53
2022-08-17T07:43:23.564Z,68.23
2022-08-17T07:44:22.347Z,67.93
2022-08-17T07:45:22.577Z,68.30
2022-08-17T07:46:22.832Z,68.50
2022-08-17T07:47:23.046Z,68.50
2022-08-17T07:48:23.309Z,68.10
2022-08-17T07:49:23.569Z,68.30
2022-08-17T07:50:25.869Z,68.50
2022-08-17T07:51:24.156Z,68.60
2022-08-17T07:52:51.881Z,68.10
2022-08-17T07:53:25.690Z,68.50
2022-08-17T07:54:25.030Z,68.60
2022-08-17T07:55:25.290Z,68.27
2022-08-17T07:56:25.530Z,68.16
2022-08-17T07:57:30.045Z,68.16
2022-08-17T07:58:26.123Z,68.16
2022-08-17T07:59:28.656Z,68.27
2022-08-17T08:00:32.192Z,68.46
2022-08-17T08:01:27.942Z,68.66
2022-08-17T08:02:33.460Z,67.77
2022-08-17T08:03:28.615Z,67.57
2022-08-17T08:04:58.989Z,68.27
2022-08-17T08:05:46.627Z,68.33
2022-08-17T08:06:29.365Z,68.43
2022-08-17T08:07:28.737Z,68.04
2022-08-17T08:08:28.984Z,67.54
2022-08-17T08:09:29.228Z,67.54
2022-08-17T08:10:29.461Z,67.34
2022-08-17T08:11:29.699Z,67.34
2022-08-17T08:12:33.408Z,67.60
2022-08-17T08:13:30.339Z,67.31
2022-08-17T08:14:31.116Z,64.92
2022-08-17T08:15:30.821Z,64.62
2022-08-17T08:16:31.069Z,63.83
2022-08-17T08:17:31.419Z,64.03
2022-08-17T08:18:54.020Z,64.10
2022-08-17T08:19:32.972Z,64.00
2022-08-17T08:20:52.763Z,63.80
2022-08-17T08:21:33.603Z,63.21
2022-08-17T08:22:32.980Z,63.40
2022-08-17T08:23:33.203Z,62.38
2022-08-17T08:24:33.474Z,61.89
2022-08-17T08:25:33.706Z,62.48
2022-08-17T08:26:34.008Z,61.99
2022-08-17T08:27:34.249Z,61.49
2022-08-17T08:28:34.480Z,60.80
2022-08-17T08:29:34.763Z,61.19
2022-08-17T08:30:34.961Z,63.34
2022-08-17T08:31:40.173Z,64.34
2022-08-17T08:32:36.530Z,63.74
2022-08-17T08:33:35.851Z,61.96
2022-08-17T08:35:00.836Z,61.76
2022-08-17T08:35:37.425Z,60.86
2022-08-17T08:37:14.274Z,60.96
2022-08-17T08:37:42.722Z,62.62
2022-08-17T08:38:38.331Z,61.93
2022-08-17T08:39:37.679Z,60.94
2022-08-17T08:40:37.934Z,59.35
2022-08-17T08:41:38.197Z,59.84
2022-08-17T08:42:38.504Z,59.94
2022-08-17T08:43:38.747Z,62.92
2022-08-17T08:45:00.801Z,64.31
2022-08-17T08:45:40.341Z,60.44
2022-08-17T08:46:39.640Z,62.12
2022-08-17T08:47:39.868Z,59.05
2022-08-17T08:48:56.376Z,62.02
2022-08-17T08:50:41.700Z,60.34
2022-08-17T08:51:41.001Z,60.64
2022-08-17T08:52:41.229Z,60.91
2022-08-17T08:53:41.490Z,60.81
2022-08-17T08:54:41.729Z,62.10
2022-08-17T08:55:41.981Z,63.28
2022-08-17T08:57:11.645Z,61.30
2022-08-17T08:57:43.544Z,60.71
2022-08-17T08:58:42.934Z,59.22
2022-08-17T08:59:44.592Z,60.71
2022-08-17T09:00:44.437Z,61.70
2022-08-17T09:01:43.757Z,59.62
2022-08-17T09:02:44.009Z,58.63
2022-08-17T09:03:52.723Z,57.04
2022-08-17T09:05:12.858Z,57.21
2022-08-17T09:05:45.817Z,57.41
2022-08-17T09:06:45.149Z,57.02
2022-08-17T09:07:57.336Z,57.61
2022-08-17T09:08:45.723Z,56.62
2022-08-17T09:09:46.142Z,56.99
2022-08-17T09:10:46.192Z,57.58
2022-08-17T09:12:02.202Z,57.88
2022-08-17T09:12:47.739Z,57.39
2022-08-17T09:13:47.015Z,56.49
2022-08-17T09:14:48.321Z,56.49
2022-08-17T09:15:47.625Z,56.69
2022-08-17T09:16:47.855Z,56.00
2022-08-17T09:17:48.157Z,54.91
2022-08-17T09:19:02.608Z,55.68
2022-08-17T09:19:49.705Z,56.07
2022-08-17T09:20:50.337Z,56.27
2022-08-17T09:21:49.290Z,55.28
2022-08-17T09:22:49.573Z,53.11
2022-08-17T09:23:49.776Z,53.20
2022-08-17T09:24:50.001Z,53.50
2022-08-17T09:25:50.253Z,53.80
2022-08-17T09:26:50.480Z,54.69
2022-08-17T09:27:50.866Z,54.59
2022-08-17T09:28:51.035Z,54.59
2022-08-17T09:29:51.272Z,54.69
2022-08-17T09:30:51.493Z,54.69
2022-08-17T09:31:51.726Z,54.66
2022-08-17T09:32:51.977Z,53.97
2022-08-17T09:33:52.225Z,53.97
2022-08-17T09:34:52.502Z,53.67
2022-08-17T09:35:52.697Z,53.47
2022-08-17T09:36:52.915Z,54.06
2022-08-17T09:37:53.164Z,54.27
2022-08-17T09:38:53.388Z,54.17
2022-08-17T09:39:53.706Z,54.66
2022-08-17T09:40:53.942Z,54.66
2022-08-17T09:41:54.170Z,54.96
2022-08-17T09:42:54.393Z,54.66
2022-08-17T09:43:54.620Z,53.97
2022-08-17T09:44:54.861Z,52.98
2022-08-17T09:45:55.092Z,52.39
2022-08-17T09:46:55.320Z,53.28
2022-08-17T09:47:55.575Z,53.18
2022-08-17T09:48:55.813Z,52.98
2022-08-17T09:49:56.189Z,53.67
2022-08-17T09:51:05.783Z,53.08
2022-08-17T09:51:57.723Z,53.47
2022-08-17T09:52:57.013Z,52.39
2022-08-17T09:54:14.775Z,51.59
2022-08-17T09:54:58.544Z,51.20
2022-08-17T09:55:57.844Z,51.28
2022-08-17T09:57:25.809Z,52.26
2022-08-17T09:57:59.777Z,51.87
2022-08-17T09:58:58.679Z,53.25
2022-08-17T09:59:59.040Z,51.77
2022-08-17T10:00:59.301Z,52.66
2022-08-17T10:01:59.536Z,53.35
2022-08-17T10:02:59.769Z,52.06
2022-08-17T10:04:00.005Z,51.28
2022-08-17T10:05:00.250Z,51.67
2022-08-17T10:06:00.460Z,51.18
2022-08-17T10:07:00.753Z,51.97
2022-08-17T10:08:01.112Z,53.03
2022-08-17T10:09:01.334Z,55.30
2022-08-17T10:10:01.613Z,54.93
2022-08-17T10:11:01.866Z,52.95
2022-08-17T10:12:02.102Z,52.66
2022-08-17T10:13:02.329Z,52.17
2022-08-17T10:14:02.575Z,55.43
2022-08-17T10:15:07.813Z,51.18
2022-08-17T10:16:04.237Z,49.60
2022-08-17T10:17:03.587Z,49.67
2022-08-17T10:18:03.827Z,50.46
2022-08-17T10:19:04.048Z,50.26
2022-08-17T10:20:04.438Z,51.13
2022-08-17T10:21:05.606Z,50.04
2022-08-17T10:22:15.008Z,49.65
2022-08-17T10:23:06.195Z,50.04
2022-08-17T10:24:05.489Z,49.94
2022-08-17T10:25:22.856Z,51.82
2022-08-17T10:26:07.030Z,49.55
2022-08-17T10:27:06.346Z,50.73
2022-08-17T10:28:06.577Z,50.04
2022-08-17T10:29:06.893Z,52.01
2022-08-17T10:30:07.127Z,52.31
2022-08-17T10:32:08.686Z,50.24
2022-08-17T10:33:08.187Z,50.43
2022-08-17T10:34:09.566Z,53.00
2022-08-17T10:35:08.504Z,51.13
2022-08-17T10:36:10.805Z,51.23
2022-08-17T10:37:09.016Z,49.55
2022-08-17T10:38:09.395Z,50.02
2022-08-17T10:39:09.579Z,50.81
2022-08-17T10:40:10.073Z,51.99
2022-08-17T10:41:10.150Z,50.21
2022-08-17T10:42:10.529Z,48.34
2022-08-17T10:43:10.740Z,50.41
2022-08-17T10:44:39.516Z,52.48
2022-08-17T10:45:14.276Z,51.89
2022-08-17T10:46:30.324Z,49.22
2022-08-17T10:47:12.892Z,49.72
2022-08-17T10:48:12.578Z,49.03
2022-08-17T10:49:12.499Z,49.33
2022-08-17T10:50:12.815Z,48.34
2022-08-17T10:51:13.045Z,49.13
2022-08-17T10:52:15.667Z,49.22
2022-08-17T10:53:17.905Z,50.21
2022-08-17T10:54:14.907Z,51.40
2022-08-17T10:55:14.204Z,51.40
2022-08-17T10:56:14.428Z,49.52
2022-08-17T10:57:14.710Z,49.82
2022-08-17T10:58:14.947Z,50.61
2022-08-17T10:59:16.167Z,49.92
2022-08-17T11:00:17.230Z,51.10
2022-08-17T11:01:15.832Z,48.93
2022-08-17T11:02:16.097Z,49.92
2022-08-17T11:03:17.289Z,49.40
2022-08-17T11:04:16.584Z,49.50
2022-08-17T11:05:16.812Z,50.59
2022-08-17T11:06:17.051Z,49.40
2022-08-17T11:07:17.297Z,49.01
2022-08-17T11:08:17.534Z,47.72
2022-08-17T11:09:17.772Z,46.94
2022-08-17T11:10:18.016Z,46.32
2022-08-17T11:11:18.337Z,46.12
2022-08-17T11:12:18.582Z,46.52
2022-08-17T11:13:18.817Z,45.93
2022-08-17T11:14:19.071Z,49.48
2022-08-17T11:15:19.297Z,48.00
2022-08-17T11:16:19.538Z,48.39
2022-08-17T11:17:19.783Z,49.48
2022-08-17T11:18:20.790Z,47.80
2022-08-17T11:19:21.181Z,46.72
2022-08-17T11:20:20.632Z,47.21
2022-08-17T11:21:20.862Z,48.88
2022-08-17T11:22:21.120Z,49.55
2022-08-17T11:23:21.381Z,48.57
2022-08-17T11:24:21.652Z,48.86
2022-08-17T11:25:21.871Z,47.38
2022-08-17T11:26:22.111Z,49.95
2022-08-17T11:27:22.364Z,49.35
2022-08-17T11:28:22.717Z,47.09
2022-08-17T11:29:24.592Z,49.55
2022-08-17T11:30:23.176Z,49.55
2022-08-17T11:31:23.417Z,50.83
2022-08-17T11:32:25.527Z,50.93
2022-08-17T11:33:23.960Z,49.67
2022-08-17T11:34:24.207Z,49.18
2022-08-17T11:35:24.438Z,49.87
2022-08-17T11:36:24.759Z,50.76
2022-08-17T11:37:24.999Z,51.45
2022-08-17T11:38:25.254Z,48.39
2022-08-17T11:39:25.569Z,50.46
2022-08-17T11:40:25.861Z,47.01
2022-08-17T11:41:26.099Z,47.01
2022-08-17T11:42:26.350Z,46.52
2022-08-17T11:43:26.593Z,47.01
2022-08-17T11:44:26.825Z,46.62
2022-08-17T11:45:32.292Z,46.62
2022-08-17T11:46:28.339Z,46.81
2022-08-17T11:47:27.626Z,47.01
2022-08-17T11:48:29.033Z,46.89
2022-08-17T11:49:28.097Z,47.09
2022-08-17T11:50:28.325Z,46.79
2022-08-17T11:51:28.569Z,47.56
2022-08-17T11:52:28.822Z,47.46
2022-08-17T11:53:29.058Z,47.16
2022-08-17T11:54:34.100Z,47.26
2022-08-17T11:55:41.764Z,46.77
2022-08-17T11:56:30.990Z,46.75
2022-08-17T11:57:30.289Z,47.53
2022-08-17T11:58:31.302Z,47.73
2022-08-17T11:59:30.771Z,45.37
2022-08-17T12:00:31.010Z,45.27
2022-08-17T12:01:31.242Z,45.09
2022-08-17T12:02:32.523Z,44.90
2022-08-17T12:03:31.939Z,45.59
2022-08-17T12:04:32.112Z,45.29
2022-08-17T12:05:32.335Z,46.35
2022-08-17T12:06:32.592Z,45.49
2022-08-17T12:07:32.830Z,46.06
2022-08-17T12:08:33.064Z,46.06
2022-08-17T12:09:33.308Z,46.15
2022-08-17T12:10:33.550Z,46.65
2022-08-17T12:12:01.542Z,46.15
2022-08-17T12:12:35.106Z,46.18
2022-08-17T12:13:38.656Z,45.78
2022-08-17T12:15:05.679Z,46.08
2022-08-17T12:15:35.919Z,46.18
2022-08-17T12:16:35.245Z,45.86
2022-08-17T12:17:41.134Z,45.96
2022-08-17T12:18:36.801Z,45.07
2022-08-17T12:19:36.111Z,45.96
2022-08-17T12:20:36.337Z,45.07
2022-08-17T12:21:36.701Z,45.96
2022-08-17T12:22:36.943Z,47.53
2022-08-17T12:23:37.195Z,48.83
2022-08-17T12:24:37.412Z,49.13
2022-08-17T12:25:37.767Z,48.64
2022-08-17T12:26:38.004Z,47.48
2022-08-17T12:28:04.441Z,48.57
2022-08-17T12:28:39.567Z,49.26
2022-08-17T12:29:39.335Z,50.14
2022-08-17T12:30:39.132Z,50.44
2022-08-17T12:31:39.353Z,50.76
2022-08-17T12:32:39.747Z,50.76
2022-08-17T12:33:39.973Z,50.76
2022-08-17T12:34:40.220Z,50.56
2022-08-17T12:35:40.482Z,50.46
2022-08-17T12:36:40.682Z,49.77
2022-08-17T12:37:40.936Z,50.07
2022-08-17T12:38:41.163Z,46.72
2022-08-17T12:39:41.419Z,47.28
2022-08-17T12:40:41.651Z,46.69
2022-08-17T12:41:41.874Z,48.17
2022-08-17T12:42:42.268Z,46.57
2022-08-17T12:43:42.474Z,46.28
2022-08-17T12:44:50.330Z,47.36
2022-08-17T12:45:44.014Z,46.87
2022-08-17T12:46:43.331Z,48.14
2022-08-17T12:47:43.652Z,48.05
2022-08-17T12:48:59.189Z,48.74
2022-08-17T12:49:45.183Z,48.05
2022-08-17T12:50:44.458Z,45.49
2022-08-17T12:51:44.700Z,47.06
2022-08-17T12:52:44.940Z,48.64
2022-08-17T12:53:45.212Z,46.47
2022-08-17T12:54:45.502Z,45.19
2022-08-17T12:55:45.836Z,46.37
2022-08-17T12:56:46.059Z,47.46
2022-08-17T12:57:46.376Z,48.44
2022-08-17T12:58:46.644Z,47.16
2022-08-17T12:59:46.883Z,47.95